Time;durP1;ratioP1;P1;durP2;ratioP2;P2;SDS_P1;SDS_P2;PMS_P1;PMS_P2;Temp;Humidity;BMP_temperature;BMP_pressure;BME280_temperature;BME280_humidity;BME280_pressure;Samples;Min_cycle;Max_cycle;Signal;HPM_P1;HPM_P2
2022/06/21 00:00:16;;;;;;;8.23;5.00;;;;;;;24.09;78.04;99446.97;5075370;28;20468;-74
2022/06/21 00:02:45;;;;;;;8.75;5.30;;;;;;;24.10;77.32;99440.47;5075815;28;20388;-75
2022/06/21 00:05:19;;;;;;;7.47;5.28;;;;;;;24.02;77.50;99436.03;5075417;28;20040;-74
2022/06/21 00:07:48;;;;;;;7.70;5.13;;;;;;;23.90;77.91;99416.66;5075162;28;20036;-75
2022/06/21 00:10:18;;;;;;;8.10;5.32;;;;;;;23.92;78.58;99406.41;5074738;28;20086;-73
2022/06/21 00:12:46;;;;;;;11.95;5.68;;;;;;;24.01;77.28;99400.81;5075001;28;20037;-73
2022/06/21 00:15:15;;;;;;;10.00;5.20;;;;;;;24.06;76.77;99403.78;5074780;28;20070;-73
2022/06/21 00:17:47;;;;;;;10.00;5.50;;;;;;;23.93;77.30;99402.69;5074468;28;20047;-74
2022/06/21 00:20:20;;;;;;;8.77;5.28;;;;;;;23.88;77.53;99413.31;5075069;28;20404;-74
2022/06/21 00:22:50;;;;;;;10.70;5.57;;;;;;;23.95;76.95;99416.09;5074502;28;20068;-73
2022/06/21 00:25:20;;;;;;;7.53;4.63;;;;;;;23.98;76.77;99427.41;5074954;28;20124;-73
2022/06/21 00:27:48;;;;;;;8.82;5.20;;;;;;;23.96;76.45;99426.78;5074702;28;20047;-75
2022/06/21 00:30:18;;;;;;;9.40;4.90;;;;;;;23.92;75.68;99441.81;5074703;28;20036;-75
2022/06/21 00:32:48;;;;;;;10.32;5.55;;;;;;;23.96;75.95;99437.66;5074554;28;20044;-76
2022/06/21 00:35:21;;;;;;;8.00;5.10;;;;;;;23.89;75.96;99453.13;5073780;28;20040;-75
2022/06/21 00:37:50;;;;;;;7.65;4.82;;;;;;;23.70;77.50;99448.34;5074561;28;20068;-78
2022/06/21 00:40:24;;;;;;;9.05;5.50;;;;;;;23.65;78.15;99450.81;5074858;28;20037;-79
2022/06/21 00:42:56;;;;;;;11.45;4.90;;;;;;;23.50;79.35;99460.91;5074093;28;20094;-81
2022/06/21 00:45:31;;;;;;;9.38;4.50;;;;;;;23.36;81.33;99466.22;5074744;28;20132;-78
2022/06/21 00:48:03;;;;;;;8.60;4.80;;;;;;;23.33;81.08;99469.31;5074233;28;20048;-78
2022/06/21 00:50:36;;;;;;;7.32;4.43;;;;;;;23.27;78.57;99469.25;5074432;28;20120;-77
2022/06/21 00:53:12;;;;;;;7.03;4.50;;;;;;;23.24;77.35;99473.19;5073058;28;20041;-77
2022/06/21 00:55:48;;;;;;;6.65;4.45;;;;;;;23.31;76.57;99460.50;5074159;28;20093;-78
2022/06/21 00:58:19;;;;;;;7.78;4.47;;;;;;;23.27;75.94;99464.66;5073035;28;20052;-77
2022/06/21 01:01:00;;;;;;;7.53;4.00;;;;;;;23.04;78.41;99474.84;5074048;28;20036;-77
2022/06/21 01:03:32;;;;;;;7.93;4.25;;;;;;;23.00;78.81;99460.78;5073038;28;20098;-78
2022/06/21 01:06:05;;;;;;;9.07;4.47;;;;;;;23.04;78.85;99486.56;5074842;28;20037;-77
2022/06/21 01:08:36;;;;;;;9.50;4.60;;;;;;;23.02;78.85;99476.91;5074126;28;20075;-78
2022/06/21 01:11:09;;;;;;;8.55;3.97;;;;;;;22.95;77.36;99481.41;5073838;28;20037;-77
2022/06/21 01:13:43;;;;;;;7.30;4.60;;;;;;;23.00;76.13;99484.44;5074024;28;20123;-79
2022/06/21 01:16:13;;;;;;;7.35;3.88;;;;;;;22.93;75.80;99483.50;5074092;28;20040;-79
2022/06/21 01:18:44;;;;;;;5.40;3.55;;;;;;;22.93;75.47;99469.91;5073952;28;20041;-80
2022/06/21 01:21:19;;;;;;;10.25;4.22;;;;;;;22.92;74.71;99481.81;5073500;28;20501;-80
2022/06/21 01:23:57;;;;;;;6.22;4.22;;;;;;;22.88;73.99;99459.63;5073664;28;20063;-79
2022/06/21 01:26:36;;;;;;;7.85;3.60;;;;;;;22.70;75.85;99451.81;5073538;28;20040;-76
2022/06/21 01:29:08;;;;;;;7.80;4.07;;;;;;;22.71;76.32;99458.94;5073524;28;20045;-77
2022/06/21 01:31:36;;;;;;;8.40;4.18;;;;;;;22.65;77.20;99467.84;5073780;28;20047;-77
2022/06/21 01:34:10;;;;;;;6.70;3.65;;;;;;;22.60;77.65;99473.03;5073075;28;20059;-77
2022/06/21 01:36:38;;;;;;;6.53;3.83;;;;;;;22.68;76.92;99475.63;5073690;28;20445;-77
2022/06/21 01:39:09;;;;;;;7.60;3.80;;;;;;;22.56;77.42;99477.97;5073463;28;20544;-85
2022/06/21 01:41:44;;;;;;;9.40;4.47;;;;;;;22.57;77.86;99486.97;5073400;28;20056;-85
2022/06/21 01:44:16;;;;;;;7.65;3.83;;;;;;;22.45;78.32;99486.59;5073606;28;20096;-85
2022/06/21 01:46:46;;;;;;;6.97;4.25;;;;;;;22.41;78.07;99487.16;5072086;28;20131;-84
2022/06/21 01:49:20;;;;;;;7.78;4.32;;;;;;;22.40;77.84;99493.63;5073681;28;20124;-85
2022/06/21 01:51:52;;;;;;;7.43;3.97;;;;;;;22.32;77.37;99507.31;5073381;28;20093;-86
2022/06/21 01:54:24;;;;;;;17.05;4.32;;;;;;;22.12;78.53;99502.41;5073620;28;20127;-82
2022/06/21 01:56:54;;;;;;;7.25;4.03;;;;;;;22.00;78.68;99504.69;5073240;28;20052;-82
2022/06/21 01:59:27;;;;;;;8.00;4.40;;;;;;;21.81;80.45;99498.91;5073251;28;20079;-83
2022/06/21 02:02:01;;;;;;;8.50;4.20;;;;;;;21.82;80.71;99496.03;5073159;28;20434;-77
2022/06/21 02:04:32;;;;;;;7.57;4.32;;;;;;;21.74;81.85;99503.41;5072145;28;20079;-76
2022/06/21 02:07:04;;;;;;;7.05;4.32;;;;;;;21.60;82.89;99511.28;5072819;28;20037;-77
2022/06/21 02:09:37;;;;;;;6.13;4.78;;;;;;;21.54;83.11;99503.88;5073120;28;20045;-77
2022/06/21 02:12:11;;;;;;;8.75;4.70;;;;;;;21.50;83.97;99524.25;5071569;28;20227;-76
2022/06/21 02:14:46;;;;;;;7.25;4.85;;;;;;;21.47;83.56;99521.06;5073184;28;20383;-77
2022/06/21 02:17:20;;;;;;;8.65;4.78;;;;;;;21.40;83.52;99513.63;5073068;28;20043;-77
2022/06/21 02:19:54;;;;;;;8.40;4.68;;;;;;;21.29;84.98;99518.63;5072559;28;20049;-75
2022/06/21 02:22:25;;;;;;;8.43;4.85;;;;;;;21.14;88.03;99538.34;5073489;28;20056;-75
2022/06/21 02:24:56;;;;;;;7.70;5.00;;;;;;;21.19;87.78;99531.53;5072705;28;20109;-75
2022/06/21 02:27:29;;;;;;;7.43;4.85;;;;;;;21.26;87.32;99533.41;5073065;28;20052;-75
2022/06/21 02:30:01;;;;;;;8.00;5.25;;;;;;;21.16;88.31;99538.16;5072901;28;20047;-75
2022/06/21 02:32:35;;;;;;;6.75;4.82;;;;;;;21.08;87.61;99525.50;5073142;28;20045;-73
2022/06/21 02:35:07;;;;;;;8.32;4.90;;;;;;;21.00;89.25;99541.78;5072801;28;20444;-74
2022/06/21 02:37:37;;;;;;;6.60;4.80;;;;;;;20.96;89.49;99536.91;5073134;28;20043;-73
2022/06/21 02:40:08;;;;;;;8.98;5.25;;;;;;;20.99;88.50;99537.38;5072898;28;20049;-76
2022/06/21 02:42:41;;;;;;;12.05;5.93;;;;;;;20.91;90.11;99553.69;5072939;28;20044;-76
2022/06/21 02:45:23;;;;;;;7.95;5.07;;;;;;;20.95;88.50;99552.34;5072774;28;20041;-74
2022/06/21 02:48:01;;;;;;;8.75;4.60;;;;;;;20.85;89.48;99541.69;5072666;28;20424;-74
2022/06/21 02:50:49;;;;;;;9.00;4.97;;;;;;;20.85;90.48;99546.28;5072685;28;20087;-74
2022/06/21 02:53:22;;;;;;;9.45;5.35;;;;;;;20.91;86.98;99556.41;5073013;28;20076;-74
2022/06/21 02:55:53;;;;;;;;;;;;;;;20.93;87.48;99565.19;5073135;28;20075;-75
2022/06/21 02:58:30;;;;;;;8.38;4.90;;;;;;;20.88;85.85;99556.75;5073321;28;19963;-79
2022/06/21 03:01:00;;;;;;;6.82;4.65;;;;;;;20.79;83.85;99547.81;5075006;28;20051;-79
2022/06/21 03:03:32;;;;;;;8.02;4.88;;;;;;;20.86;84.34;99553.38;5076604;28;20048;-80
2022/06/21 03:06:04;;;;;;;8.23;5.03;;;;;;;20.71;83.76;99563.25;5076300;28;20501;-80
2022/06/21 03:08:34;;;;;;;6.85;5.07;;;;;;;20.72;83.41;99575.78;5076202;28;20547;-80
2022/06/21 03:11:02;;;;;;;7.82;4.95;;;;;;;20.60;83.83;99571.75;5076053;28;20041;-80
2022/06/21 03:13:35;;;;;;;7.05;5.13;;;;;;;20.65;84.27;99575.59;5075917;28;20044;-79
2022/06/21 03:16:14;;;;;;;8.68;5.30;;;;;;;20.64;84.71;99583.91;5075898;28;20041;-80
2022/06/21 03:18:46;;;;;;;7.95;5.25;;;;;;;20.49;85.70;99573.81;5076285;28;20436;-80
2022/06/21 03:21:16;;;;;;;7.85;5.47;;;;;;;20.23;86.72;99586.66;5075890;28;20075;-76
2022/06/21 03:23:46;;;;;;;8.15;5.00;;;;;;;20.28;86.92;99603.25;5076190;28;20135;-77
2022/06/21 03:26:15;;;;;;;8.25;5.47;;;;;;;20.20;87.78;99608.66;5075465;28;20552;-75
2022/06/21 03:28:46;;;;;;;8.20;5.38;;;;;;;20.18;86.65;99602.59;5075987;28;20448;-75
2022/06/21 03:31:19;;;;;;;7.97;5.40;;;;;;;20.15;85.85;99594.78;5075800;28;20127;-75
2022/06/21 03:33:49;;;;;;;8.30;4.95;;;;;;;20.29;85.23;99605.78;5074546;28;20075;-75
2022/06/21 03:36:22;;;;;;;7.88;5.13;;;;;;;20.57;81.95;99598.19;5076157;28;20041;-75
2022/06/21 03:38:55;;;;;;;10.47;5.13;;;;;;;20.83;78.37;99607.91;5075915;28;20094;-75
2022/06/21 03:44:15;;;;;;;7.78;4.82;;;;;;;21.83;71.86;99621.75;5075551;28;20470;-77
2022/06/21 03:46:51;;;;;;;8.10;5.00;;;;;;;21.99;69.45;99629.75;5075726;28;20522;-81
2022/06/21 03:49:28;;;;;;;9.25;5.25;;;;;;;22.05;68.09;99637.19;5075706;28;20090;-78
2022/06/21 03:51:56;;;;;;;7.38;4.57;;;;;;;22.49;65.02;99645.53;5075053;28;20045;-78
2022/06/21 03:54:31;;;;;;;6.80;4.32;;;;;;;22.41;65.10;99636.59;5075609;28;20044;-78
2022/06/21 03:57:08;;;;;;;6.45;4.70;;;;;;;23.18;62.41;99644.50;5075075;28;20109;-77
2022/06/21 03:59:40;;;;;;;6.63;4.40;;;;;;;23.53;60.08;99640.13;5075582;28;20409;-78
2022/06/21 04:02:16;;;;;;;6.32;4.50;;;;;;;23.37;59.88;99638.50;5074935;28;20041;-77
2022/06/21 04:04:53;;;;;;;6.88;3.58;;;;;;;23.59;58.57;99639.44;5075183;28;20090;-79
2022/06/21 04:07:27;;;;;;;7.38;3.78;;;;;;;23.57;57.32;99638.75;5075378;28;20041;-79
2022/06/21 04:10:05;;;;;;;8.15;3.95;;;;;;;24.21;55.74;99652.44;5075008;28;20048;-80
2022/06/21 04:12:42;;;;;;;7.00;3.40;;;;;;;24.61;53.52;99652.84;5075269;28;20127;-78
2022/06/21 04:15:17;;;;;;;5.53;3.67;;;;;;;24.89;51.34;99661.88;5074894;28;20047;-78
2022/06/21 04:17:50;;;;;;;7.15;3.40;;;;;;;25.63;49.75;99655.81;5075268;28;20040;-79
2022/06/21 04:20:28;;;;;;;6.07;3.25;;;;;;;24.95;49.76;99666.53;5074877;28;20047;-78
2022/06/21 04:23:02;;;;;;;5.68;3.40;;;;;;;25.23;49.21;99655.63;5073495;28;20139;-77
2022/06/21 04:25:37;;;;;;;7.10;2.97;;;;;;;25.15;49.38;99660.41;5074766;28;20040;-75
2022/06/21 04:28:12;;;;;;;4.97;3.00;;;;;;;24.89;48.20;99661.88;5074407;28;20064;-77
2022/06/21 04:30:47;;;;;;;5.25;2.33;;;;;;;24.20;49.47;99650.75;5074920;28;20043;-75
2022/06/21 04:33:22;;;;;;;5.20;2.40;;;;;;;25.01;47.23;99662.19;5074942;28;20052;-75
2022/06/21 04:35:55;;;;;;;5.75;2.70;;;;;;;24.94;47.02;99656.66;5074966;28;20389;-76
2022/06/21 04:38:28;;;;;;;3.65;2.30;;;;;;;25.91;43.70;99645.63;5074392;28;20068;-76
2022/06/21 04:41:01;;;;;;;3.40;2.30;;;;;;;24.72;45.10;99652.31;5074146;28;20124;-75
2022/06/21 04:43:36;;;;;;;3.72;2.10;;;;;;;25.16;44.22;99662.91;5074687;28;20066;-75
2022/06/21 04:46:12;;;;;;;3.75;2.10;;;;;;;26.64;40.96;99659.44;5074002;28;20400;-75
2022/06/21 04:48:46;;;;;;;3.28;2.05;;;;;;;27.18;39.83;99668.44;5074468;28;20436;-73
2022/06/21 04:51:18;;;;;;;3.92;2.22;;;;;;;26.27;40.07;99665.50;5074183;28;20044;-74
2022/06/21 04:53:53;;;;;;;2.95;1.95;;;;;;;25.71;41.30;99676.69;5074066;28;20458;-74
2022/06/21 04:56:33;;;;;;;3.35;2.00;;;;;;;25.36;42.41;99671.22;5074073;28;20047;-78
2022/06/21 04:59:03;;;;;;;3.13;1.90;;;;;;;26.05;40.12;99678.44;5074036;28;20115;-73
2022/06/21 05:01:37;;;;;;;4.18;1.88;;;;;;;26.88;36.93;99674.38;5074232;28;20047;-75
2022/06/21 05:04:10;;;;;;;2.92;1.60;;;;;;;27.55;35.82;99672.34;5074280;28;20053;-76
2022/06/21 05:06:39;;;;;;;2.58;1.70;;;;;;;27.35;34.46;99678.72;5073662;28;20055;-77
2022/06/21 05:09:13;;;;;;;4.63;1.70;;;;;;;27.04;34.33;99679.44;5074046;28;20041;-78
2022/06/21 05:11:41;;;;;;;3.72;1.77;;;;;;;27.28;33.91;99675.16;5072783;28;20363;-80
2022/06/21 05:14:19;;;;;;;4.63;1.40;;;;;;;26.92;33.56;99677.50;5073353;28;20119;-84
2022/06/21 05:16:50;;;;;;;3.53;1.40;;;;;;;25.71;34.24;99687.59;5073768;28;20059;-82
2022/06/21 05:19:22;;;;;;;2.55;1.60;;;;;;;26.77;34.80;99680.47;5073816;28;20040;-76
2022/06/21 05:21:56;;;;;;;5.10;1.65;;;;;;;27.95;34.45;99679.38;5073311;28;20088;-76
2022/06/21 05:24:24;;;;;;;2.38;1.50;;;;;;;27.87;33.18;99685.09;5073655;28;20044;-79
2022/06/21 05:27:04;;;;;;;7.05;1.70;;;;;;;26.81;37.05;99679.00;5073412;28;20113;-80
2022/06/21 05:29:42;;;;;;;4.30;1.63;;;;;;;27.40;37.02;99691.75;5073641;28;20045;-78
2022/06/21 05:32:20;;;;;;;4.03;1.60;;;;;;;27.95;36.31;99686.75;5073447;28;20040;-78
2022/06/21 05:34:53;;;;;;;2.80;1.33;;;;;;;27.50;35.40;99694.91;5073666;28;20044;-77
2022/06/21 05:37:29;;;;;;;3.50;1.50;;;;;;;26.29;37.03;99701.66;5073387;28;20044;-76
2022/06/21 05:39:59;;;;;;;2.45;1.48;;;;;;;26.34;37.16;99702.69;5073178;28;20052;-77
2022/06/21 05:42:32;;;;;;;2.95;1.40;;;;;;;26.77;37.28;99694.16;5073679;28;20045;-78
2022/06/21 05:45:07;;;;;;;3.05;1.30;;;;;;;26.50;37.28;99699.59;5075642;28;20068;-77
2022/06/21 05:47:42;;;;;;;2.35;1.15;;;;;;;26.99;37.03;99692.88;5073772;28;20083;-77
2022/06/21 05:50:18;;;;;;;4.10;1.48;;;;;;;26.38;36.80;99697.72;5073289;28;20124;-77
2022/06/21 05:52:50;;;;;;;4.10;1.67;;;;;;;26.83;36.86;99701.53;5073153;28;20072;-83
2022/06/21 05:55:24;;;;;;;4.25;1.35;;;;;;;26.76;36.55;99698.78;5072480;28;20079;-78
2022/06/21 05:57:57;;;;;;;3.65;1.25;;;;;;;27.21;34.82;99715.41;5070455;28;20075;-82
2022/06/21 06:00:31;;;;;;;4.72;1.40;;;;;;;27.18;34.66;99696.66;5072487;28;20059;-80
2022/06/21 06:03:06;;;;;;;3.83;1.20;;;;;;;26.78;35.31;99693.94;5073015;28;20037;-82
2022/06/21 06:05:36;;;;;;;2.20;1.13;;;;;;;27.57;33.76;99692.16;5073383;28;20082;-79
2022/06/21 06:08:10;;;;;;;1.65;1.00;;;;;;;27.92;31.35;99696.25;5072964;28;20040;-83
2022/06/21 06:10:43;;;;;;;8.38;1.60;;;;;;;27.26;30.99;99710.13;5073315;28;20114;-76
2022/06/21 06:13:15;;;;;;;2.60;1.35;;;;;;;26.89;31.22;99713.50;5072749;28;20036;-75
2022/06/21 06:15:49;;;;;;;2.90;1.40;;;;;;;27.86;31.11;99715.47;5072814;28;20115;-75
2022/06/21 06:18:22;;;;;;;2.42;1.20;;;;;;;27.97;31.87;99708.44;5067318;28;20044;-76
2022/06/21 06:20:58;;;;;;;2.50;1.30;;;;;;;27.14;32.65;99721.97;5069277;28;20057;-79
2022/06/21 06:23:36;;;;;;;3.83;1.20;;;;;;;27.33;32.39;99721.94;5072890;28;20500;-85
2022/06/21 06:26:13;;;;;;;3.65;1.20;;;;;;;26.45;34.18;99723.19;5070196;28;20401;-85
2022/06/21 06:28:45;;;;;;;4.97;1.40;;;;;;;26.62;33.83;99702.56;5067625;28;20036;-82
2022/06/21 06:31:20;;;;;;;3.35;1.27;;;;;;;27.45;32.99;99718.53;5065104;28;20046;-74
2022/06/21 06:33:53;;;;;;;3.47;1.25;;;;;;;27.51;31.51;99713.03;5071158;28;20068;-76
2022/06/21 06:36:27;;;;;;;3.55;1.35;;;;;;;27.59;31.93;99720.16;5076382;28;20059;-79
2022/06/21 06:38:57;;;;;;;7.18;1.63;;;;;;;28.31;30.93;99721.81;5076577;28;20450;-82
2022/06/21 06:41:33;;;;;;;5.95;1.20;;;;;;;27.19;31.47;99728.47;5076074;28;20086;-89
2022/06/21 06:44:04;;;;;;;3.28;1.13;;;;;;;26.94;30.29;99717.31;5076335;28;20370;-82
2022/06/21 06:46:35;;;;;;;3.67;1.23;;;;;;;27.85;28.79;99725.56;5076704;28;20495;-83
2022/06/21 06:49:19;;;;;;;5.25;1.23;;;;;;;27.02;28.46;99738.13;5072350;28;20055;-86
2022/06/21 06:51:55;;;;;;;1.80;0.88;;;;;;;27.78;27.15;99743.09;5066911;28;20137;-77
2022/06/21 06:54:33;;;;;;;3.05;1.15;;;;;;;27.08;28.26;99745.53;5071644;28;20094;-77
2022/06/21 06:57:09;;;;;;;3.45;0.90;;;;;;;26.91;28.71;99727.81;5076460;28;20071;-75
2022/06/21 06:59:39;;;;;;;2.80;1.30;;;;;;;26.38;31.08;99725.06;5076661;28;20036;-78
2022/06/21 07:02:18;;;;;;;6.22;1.27;;;;;;;25.74;30.15;99752.72;5076367;28;20090;-80
2022/06/21 07:04:56;;;;;;;4.65;1.27;;;;;;;25.09;30.73;99739.31;5076285;28;20123;-78
2022/06/21 07:07:30;;;;;;;2.28;1.00;;;;;;;24.83;29.91;99739.88;5075905;28;20693;-74
2022/06/21 07:10:06;;;;;;;6.88;1.27;;;;;;;24.88;31.12;99747.47;5076463;28;20040;-77
2022/06/21 07:12:35;;;;;;;4.72;1.50;;;;;;;24.43;32.36;99744.13;5076408;28;20037;-75
2022/06/21 07:15:03;;;;;;;5.15;1.30;;;;;;;23.99;31.88;99745.06;5076121;28;20040;-81
2022/06/21 07:17:37;;;;;;;7.30;1.20;;;;;;;23.80;31.01;99744.81;5076180;28;20115;-76
2022/06/21 07:20:22;;;;;;;7.95;1.50;;;;;;;23.66;31.72;99763.72;5074642;28;20409;-75
2022/06/21 07:22:55;;;;;;;;;;;;;;;23.98;31.42;99762.44;5076275;28;20441;-78
2022/06/21 07:25:31;;;;;;;3.50;1.17;;;;;;;23.87;30.68;99794.78;5075503;28;19920;-76
2022/06/21 07:28:05;;;;;;;3.80;1.17;;;;;;;23.95;30.17;99784.63;5072876;28;20124;-76
2022/06/21 07:30:39;;;;;;;4.60;1.05;;;;;;;23.49;30.49;99783.09;5074671;28;20108;-82
2022/06/21 07:33:14;;;;;;;2.95;1.05;;;;;;;23.54;30.77;99775.19;5073331;28;20094;-75
2022/06/21 07:35:50;;;;;;;4.47;1.27;;;;;;;23.11;31.48;99780.41;5071733;28;20126;-79
2022/06/21 07:38:25;;;;;;;3.97;1.20;;;;;;;23.29;31.25;99785.53;5071650;28;20044;-74
2022/06/21 07:40:57;;;;;;;4.82;1.45;;;;;;;23.39;31.80;99756.16;5074476;28;20028;-73
2022/06/21 07:43:33;;;;;;;6.95;1.40;;;;;;;23.36;31.66;99775.59;5074264;28;20037;-75
2022/06/21 07:46:03;;;;;;;3.50;1.50;;;;;;;23.07;31.54;99779.97;5071404;28;20042;-77
2022/06/21 07:48:41;;;;;;;3.15;1.23;;;;;;;23.04;32.55;99765.84;5074323;28;20095;-77
2022/06/21 07:51:15;;;;;;;5.63;1.30;;;;;;;22.92;33.15;99764.63;5073155;28;20060;-76
2022/06/21 07:53:49;;;;;;;5.55;1.73;;;;;;;23.13;32.61;99765.59;5072175;28;20055;-74
2022/06/21 07:56:22;;;;;;;6.93;1.50;;;;;;;23.19;33.16;99755.88;5071267;28;20106;-76
2022/06/21 07:58:56;;;;;;;6.05;1.30;;;;;;;22.88;32.93;99776.91;5074093;28;20036;-78
2022/06/21 08:07:13;;;;;;;2.78;1.20;;;;;;;22.96;32.09;99768.66;5073276;28;20096;-77
2022/06/21 08:09:49;;;;;;;6.40;1.48;;;;;;;22.61;32.60;99784.56;5075034;28;20062;-77
2022/06/21 08:12:18;;;;;;;4.72;1.50;;;;;;;22.79;32.29;99767.94;5074646;28;20127;-76
2022/06/21 08:14:47;;;;;;;2.08;1.15;;;;;;;22.90;32.28;99783.00;5071193;28;20040;-77
2022/06/21 08:17:25;;;;;;;2.47;0.90;;;;;;;22.53;32.54;99792.75;5074543;28;20036;-77
2022/06/21 08:20:02;;;;;;;2.25;1.38;;;;;;;22.46;32.51;99799.94;5074767;28;20029;-78
2022/06/21 08:22:38;;;;;;;6.20;1.50;;;;;;;22.53;33.11;99790.03;5073108;28;20049;-84
2022/06/21 08:25:17;;;;;;;5.85;1.42;;;;;;;22.49;33.76;99799.59;5073428;28;20491;-83
2022/06/21 08:27:51;;;;;;;4.43;1.50;;;;;;;22.37;33.69;99793.69;5081044;28;20385;-82
2022/06/21 08:30:25;;;;;;;3.15;1.33;;;;;;;22.37;33.06;99798.28;5074519;28;20032;-77
2022/06/21 08:33:00;;;;;;;4.38;1.40;;;;;;;22.64;32.55;99786.91;5074186;28;20036;-78
2022/06/21 08:35:35;;;;;;;6.32;1.38;;;;;;;22.69;31.56;99779.06;5084791;28;20049;-77
2022/06/21 08:38:10;;;;;;;6.32;1.30;;;;;;;22.66;31.09;99805.75;5071744;28;20045;-77
2022/06/21 08:45:40;;;;;;;4.15;1.17;;;;;;;22.89;30.43;99784.88;5073644;28;20047;-79
2022/06/21 08:48:19;;;;;;;4.75;1.25;;;;;;;22.54;30.33;99816.19;5073235;28;20090;-81
2022/06/21 08:51:03;;;;;;;2.45;1.38;;;;;;;22.75;30.69;99801.94;5070891;28;20056;-79
2022/06/21 08:53:52;;;;;;;3.20;1.17;;;;;;;22.93;31.36;99799.78;5054704;28;20402;-81
2022/06/21 08:56:25;;;;;;;3.63;1.20;;;;;;;22.88;31.53;99804.94;5053326;28;20041;-84
2022/06/21 08:59:07;;;;;;;2.38;1.15;;;;;;;22.64;31.89;99808.63;5077126;28;20406;-77
2022/06/21 09:01:46;;;;;;;4.60;1.42;;;;;;;22.54;31.79;99803.44;5054612;28;20131;-76
2022/06/21 09:04:25;;;;;;;5.18;1.40;;;;;;;22.45;32.03;99812.66;5054108;28;20045;-76
2022/06/21 09:07:18;;;;;;;5.93;1.50;;;;;;;22.50;32.35;99809.44;5052734;28;20387;-76
2022/06/21 09:10:04;;;;;;;2.53;1.17;;;;;;;22.71;31.74;99808.78;5052601;28;20441;-76
2022/06/21 09:12:43;;;;;;;4.53;1.35;;;;;;;23.11;31.85;99807.63;5069175;28;20554;-75
2022/06/21 09:15:27;;;;;;;7.63;1.40;;;;;;;23.23;31.14;99800.69;5053646;28;20041;-76
2022/06/21 09:18:07;;;;;;;5.72;1.38;;;;;;;23.24;31.40;99768.91;5053693;28;20141;-77
2022/06/21 09:20:43;;;;;;;4.53;1.50;;;;;;;23.21;31.81;99789.16;5052224;28;20421;-76
2022/06/21 09:23:34;;;;;;;6.72;1.33;;;;;;;23.57;32.05;99793.91;5069447;28;20049;-77
2022/06/21 09:26:09;;;;;;;5.95;1.70;;;;;;;23.55;31.50;99793.25;5053042;28;20131;-77
2022/06/21 09:28:49;;;;;;;5.03;1.40;;;;;;;23.55;31.83;99794.09;5059708;28;20059;-76
2022/06/21 09:31:23;;;;;;;7.63;1.58;;;;;;;23.88;31.40;99788.28;5072056;28;20056;-75
2022/06/21 09:33:58;;;;;;;5.40;1.60;;;;;;;23.96;31.15;99797.22;5072133;28;20071;-78
2022/06/21 09:36:36;;;;;;;4.93;1.40;;;;;;;23.91;29.89;99796.91;5071695;28;20040;-74
2022/06/21 09:39:14;;;;;;;5.32;1.45;;;;;;;23.83;30.28;99807.06;5072132;28;20048;-75
2022/06/21 09:41:52;;;;;;;7.78;1.38;;;;;;;23.76;30.82;99806.16;5073415;28;20123;-74
2022/06/21 09:44:28;;;;;;;4.35;1.33;;;;;;;23.84;31.08;99815.06;5073357;28;20068;-78
2022/06/21 09:47:03;;;;;;;5.45;1.70;;;;;;;23.92;30.79;99812.22;5073450;28;20135;-77
2022/06/21 09:49:42;;;;;;;2.75;1.27;;;;;;;23.99;31.28;99796.81;5071827;28;20059;-75
2022/06/21 09:52:21;;;;;;;2.13;1.05;;;;;;;24.09;31.05;99796.53;5073365;28;20068;-77
2022/06/21 09:54:59;;;;;;;7.75;1.48;;;;;;;24.10;31.08;99794.63;5072733;28;20055;-77
2022/06/21 09:57:43;;;;;;;2.50;1.33;;;;;;;24.25;31.18;99800.91;5071435;28;20084;-76
2022/06/21 10:00:18;;;;;;;4.82;1.58;;;;;;;24.09;30.55;99806.56;5071657;28;20568;-75
2022/06/21 10:03:00;;;;;;;6.15;1.60;;;;;;;23.94;30.88;99804.72;5072003;28;20086;-75
2022/06/21 10:05:38;;;;;;;4.43;1.38;;;;;;;23.76;30.10;99819.75;5071258;28;20052;-75
2022/06/21 10:08:28;;;;;;;6.28;1.40;;;;;;;23.84;30.76;99797.88;5072817;28;20059;-77
2022/06/21 10:11:08;;;;;;;5.55;1.55;;;;;;;23.93;30.55;99792.16;5073020;28;20045;-78
2022/06/21 10:14:02;;;;;;;2.78;1.20;;;;;;;23.69;30.64;99806.03;5070860;28;20135;-77
2022/06/21 10:16:48;;;;;;;2.05;1.10;;;;;;;23.92;30.50;99787.72;5071404;28;20045;-76
2022/06/21 10:19:36;;;;;;;3.30;1.35;;;;;;;24.06;29.23;99796.06;5071458;28;20444;-76
2022/06/21 10:22:34;;;;;;;4.20;1.13;;;;;;;24.29;28.85;99802.22;5073105;28;20067;-76
2022/06/21 10:25:32;;;;;;;4.55;1.30;;;;;;;24.14;28.17;99785.06;5070683;28;20048;-76
2022/06/21 10:28:32;;;;;;;4.63;1.38;;;;;;;24.32;28.16;99801.88;5071561;28;20059;-77
2022/06/21 10:31:30;;;;;;;2.90;1.00;;;;;;;24.02;28.21;99795.59;5072987;28;20048;-78
2022/06/21 10:34:24;;;;;;;3.83;1.27;;;;;;;24.17;29.19;99793.69;5071564;28;20052;-77
2022/06/21 10:37:03;;;;;;;2.33;1.15;;;;;;;24.46;28.76;99792.81;5052790;28;20049;-81
2022/06/21 10:39:56;;;;;;;5.43;1.40;;;;;;;24.31;28.59;99792.00;5054157;28;20049;-81
2022/06/21 10:42:50;;;;;;;2.80;1.15;;;;;;;24.23;28.15;99797.53;5070829;28;20044;-78
2022/06/21 10:45:36;;;;;;;5.20;1.35;;;;;;;24.44;28.19;99800.34;5071404;28;20052;-77
2022/06/21 10:48:34;;;;;;;2.85;1.05;;;;;;;24.64;28.78;99795.09;5072521;28;20040;-77
2022/06/21 10:51:12;;;;;;;4.18;1.35;;;;;;;24.20;27.63;99804.19;5072398;28;20044;-76
2022/06/21 10:53:53;;;;;;;2.58;0.95;;;;;;;24.16;27.55;99796.63;5069340;28;20052;-77
2022/06/21 11:01:17;;;;;;;5.40;1.38;;;;;;;24.10;27.56;99813.72;5071277;28;20033;-74
2022/06/21 11:02:46;;;;;;;4.78;1.00;;;;;;;24.23;26.55;99833.81;5072411;28;20054;-78
2022/06/21 11:05:20;;;;;;;4.15;1.27;;;;;;;24.07;27.47;99814.09;5071013;28;20048;-82
2022/06/21 11:08:01;;;;;;;4.80;1.20;;;;;;;24.05;28.14;99819.75;5071100;28;20087;-79
2022/06/21 11:10:38;;;;;;;2.92;1.08;;;;;;;23.71;28.15;99825.75;5066495;28;20046;-79
2022/06/21 11:13:14;;;;;;;1.83;0.90;;;;;;;23.94;28.02;99833.84;5070925;28;20051;-79
2022/06/21 11:15:54;;;;;;;3.05;0.98;;;;;;;24.12;29.00;99823.38;5065969;28;20132;-78
2022/06/21 11:18:34;;;;;;;4.55;1.23;;;;;;;24.68;28.87;99822.81;5068637;28;20048;-79
2022/06/21 11:21:16;;;;;;;2.97;1.15;;;;;;;24.96;28.98;99809.22;5072593;28;20044;-78
2022/06/21 11:23:55;;;;;;;3.80;1.15;;;;;;;24.94;29.15;99820.34;5072787;28;20048;-75
2022/06/21 11:26:33;;;;;;;4.22;1.15;;;;;;;24.97;29.38;99828.13;5073521;28;20040;-76
2022/06/21 11:29:26;;;;;;;6.55;1.17;;;;;;;25.05;29.04;99830.75;5073697;28;20482;-76
2022/06/21 11:32:03;;;;;;;3.08;1.02;;;;;;;24.67;28.23;99859.28;5076391;28;20049;-79
2022/06/21 11:34:42;;;;;;;4.85;1.20;;;;;;;24.41;28.34;99838.84;5075881;28;20067;-80
2022/06/21 11:37:25;;;;;;;4.40;1.13;;;;;;;24.61;28.32;99830.06;5075538;28;20098;-78
2022/06/21 11:40:10;;;;;;;3.03;0.90;;;;;;;24.68;28.57;99828.25;5076054;28;20166;-78
2022/06/21 11:42:46;;;;;;;4.90;1.38;;;;;;;24.96;28.19;99840.09;5075609;28;20064;-78
2022/06/21 11:45:33;;;;;;;1.90;0.82;;;;;;;25.20;27.80;99832.59;5075583;28;20059;-79
2022/06/21 11:48:26;;;;;;;5.65;0.90;;;;;;;25.01;26.48;99809.50;5075758;28;20568;-79
2022/06/21 11:51:03;;;;;;;2.65;0.85;;;;;;;24.80;26.70;99818.50;5074518;28;20048;-79
2022/06/21 11:53:56;;;;;;;1.65;0.88;;;;;;;24.94;26.06;99831.25;5074120;28;20044;-79
2022/06/21 11:56:36;;;;;;;1.20;0.93;;;;;;;25.01;25.83;99812.22;5074122;28;20102;-80
2022/06/21 11:59:08;;;;;;;5.07;1.10;;;;;;;24.70;26.79;99828.91;5074008;28;20048;-79
2022/06/21 12:01:45;;;;;;;2.45;1.00;;;;;;;24.96;27.30;99820.16;5073992;28;20048;-78
2022/06/21 12:04:22;;;;;;;1.98;1.02;;;;;;;25.02;27.77;99825.72;5074316;28;20378;-79
2022/06/21 12:06:58;;;;;;;4.85;1.17;;;;;;;25.19;27.58;99826.28;5074142;28;20053;-79
2022/06/21 12:09:40;;;;;;;1.98;1.02;;;;;;;25.08;27.55;99840.44;5073479;28;20053;-78
2022/06/21 12:12:28;;;;;;;2.15;0.90;;;;;;;24.99;27.38;99817.88;5074291;28;20056;-78
2022/06/21 12:15:14;;;;;;;6.70;1.42;;;;;;;24.92;28.52;99813.41;5075416;28;20068;-81
2022/06/21 12:17:50;;;;;;;7.78;1.60;;;;;;;25.06;28.36;99816.06;5074670;28;20044;-82
2022/06/21 12:20:24;;;;;;;3.38;1.20;;;;;;;24.78;28.53;99817.88;5073903;28;20140;-82
2022/06/21 12:23:01;;;;;;;2.83;1.20;;;;;;;24.88;29.29;99807.47;5075331;28;20056;-82
2022/06/21 12:25:30;;;;;;;4.70;1.40;;;;;;;25.40;27.99;99811.75;5073654;28;20135;-81
2022/06/21 12:28:00;;;;;;;3.90;1.38;;;;;;;25.00;28.54;99805.94;5075044;28;20045;-81
2022/06/21 12:30:49;;;;;;;4.65;1.20;;;;;;;24.96;29.36;99803.78;5074744;28;20098;-80